createdAt,value
2016-06-17T00:00:53.291Z,0
2016-06-17T00:01:53.061Z,0
2016-06-17T00:02:51.767Z,0
2016-06-17T00:04:52.118Z,0
2016-06-17T00:05:52.481Z,0
2016-06-17T00:07:06.753Z,0
2016-06-17T00:07:52.518Z,0
2016-06-17T00:08:52.022Z,0
2016-06-17T00:09:52.650Z,0
2016-06-17T00:10:52.732Z,0
2016-06-17T00:11:52.251Z,0
2016-06-17T00:12:52.771Z,0
2016-06-17T00:14:06.620Z,0
2016-06-17T00:14:52.574Z,0
2016-06-17T00:15:52.234Z,0
2016-06-17T00:16:52.394Z,0
2016-06-17T00:17:52.381Z,0
2016-06-17T00:18:53.009Z,0
2016-06-17T00:20:06.845Z,0
2016-06-17T00:20:52.329Z,0
2016-06-17T00:21:52.645Z,0
2016-06-17T00:22:53.039Z,0
2016-06-17T00:23:53.027Z,0
2016-06-17T00:24:52.796Z,0
2016-06-17T00:25:52.628Z,0
2016-06-17T00:26:52.631Z,0
2016-06-17T00:27:53.104Z,0
2016-06-17T00:28:52.341Z,0
2016-06-17T00:29:52.657Z,0
2016-06-17T00:30:52.598Z,0
2016-06-17T00:31:52.914Z,0
2016-06-17T00:32:52.887Z,0
2016-06-17T00:33:52.718Z,0
2016-06-17T00:34:52.706Z,0
2016-06-17T00:35:52.725Z,0
2016-06-17T00:36:52.744Z,0
2016-06-17T00:37:52.544Z,0
2016-06-17T00:38:52.908Z,0
2016-06-17T00:39:52.770Z,0
2016-06-17T00:41:07.058Z,0
2016-06-17T00:41:52.980Z,0
2016-06-17T00:42:52.797Z,0
2016-06-17T00:43:53.050Z,0
2016-06-17T00:45:06.868Z,0
2016-06-17T00:45:52.712Z,0
2016-06-17T00:46:52.700Z,0
2016-06-17T00:47:52.767Z,0
2016-06-17T00:48:53.020Z,0
2016-06-17T00:50:52.869Z,0
2016-06-17T00:51:53.107Z,0
2016-06-17T00:52:53.141Z,0
2016-06-17T00:53:52.925Z,0
2016-06-17T00:55:06.994Z,0
2016-06-17T00:55:52.791Z,0
2016-06-17T00:57:07.204Z,0
2016-06-17T00:58:07.191Z,0
2016-06-17T00:59:07.195Z,0
2016-06-17T00:59:52.961Z,0
2016-06-17T01:01:07.826Z,0
2016-06-17T01:02:07.658Z,0
2016-06-17T01:02:52.955Z,0
2016-06-17T01:04:07.039Z,0
2016-06-17T01:04:52.461Z,0
2016-06-17T01:05:53.184Z,0
2016-06-17T01:06:52.032Z,0
2016-06-17T01:07:52.863Z,0
2016-06-17T01:08:53.039Z,0
2016-06-17T01:09:53.073Z,0
2016-06-17T01:11:07.486Z,0
2016-06-17T01:11:53.424Z,0
2016-06-17T01:12:52.896Z,0
2016-06-17T01:13:52.820Z,0
2016-06-17T01:14:53.153Z,0
2016-06-17T01:15:53.313Z,0
2016-06-17T01:16:53.081Z,0
2016-06-17T01:18:07.010Z,0
2016-06-17T01:19:53.107Z,0
2016-06-17T01:20:53.095Z,0
2016-06-17T01:21:53.381Z,0
2016-06-17T01:22:53.351Z,0
2016-06-17T01:23:53.403Z,0
2016-06-17T01:24:53.390Z,0
2016-06-17T01:25:53.144Z,0
2016-06-17T01:26:53.163Z,0
2016-06-17T01:27:53.198Z,0
2016-06-17T01:28:53.216Z,0
2016-06-17T01:29:53.220Z,0
2016-06-17T01:30:53.270Z,0
2016-06-17T01:32:07.137Z,0
2016-06-17T01:32:53.466Z,0
2016-06-17T01:33:53.264Z,0
2016-06-17T01:34:53.472Z,0
2016-06-17T01:35:53.632Z,0
2016-06-17T01:37:07.342Z,0
2016-06-17T01:37:53.123Z,0
2016-06-17T01:38:53.268Z,0
2016-06-17T01:39:53.504Z,0
2016-06-17T01:40:53.289Z,0
2016-06-17T01:41:53.934Z,0
2016-06-17T01:42:53.531Z,0
2016-06-17T01:44:53.163Z,0
2016-06-17T01:45:53.244Z,0
2016-06-17T01:46:53.623Z,0
2016-06-17T01:47:53.846Z,0
2016-06-17T01:48:53.410Z,0
2016-06-17T01:49:53.430Z,0
2016-06-17T01:50:53.215Z,0
2016-06-17T01:51:53.359Z,0
2016-06-17T01:53:53.038Z,0
2016-06-17T01:55:07.529Z,0
2016-06-17T01:56:07.941Z,0
2016-06-17T01:56:54.363Z,0
2016-06-17T01:57:53.915Z,0
2016-06-17T01:58:53.325Z,0
2016-06-17T01:59:53.486Z,0
2016-06-17T02:00:53.570Z,0
2016-06-17T02:01:53.792Z,0
2016-06-17T02:02:53.609Z,0
2016-06-17T02:04:07.803Z,0
2016-06-17T02:04:54.022Z,0
2016-06-17T02:06:07.624Z,0
2016-06-17T02:06:54.030Z,0
2016-06-17T02:07:53.972Z,0
2016-06-17T02:08:53.569Z,0
2016-06-17T02:09:53.791Z,0
2016-06-17T02:10:53.795Z,0
2016-06-17T02:11:53.799Z,0
2016-06-17T02:12:53.162Z,0
2016-06-17T02:14:07.872Z,0
2016-06-17T02:14:53.622Z,0
2016-06-17T02:15:54.015Z,0
2016-06-17T02:16:53.457Z,0
2016-06-17T02:17:53.617Z,0
2016-06-17T02:18:54.120Z,0
2016-06-17T02:20:07.971Z,0
2016-06-17T02:20:53.268Z,0
2016-06-17T02:21:53.740Z,0
2016-06-17T02:23:53.434Z,0
2016-06-17T02:24:54.125Z,0
2016-06-17T02:25:54.769Z,0
2016-06-17T02:26:53.492Z,0
2016-06-17T02:28:53.748Z,0
2016-06-17T02:30:07.849Z,0
2016-06-17T02:30:53.287Z,0
2016-06-17T02:31:53.556Z,0
2016-06-17T02:32:54.169Z,0
2016-06-17T02:33:53.780Z,0
2016-06-17T02:35:07.866Z,0
2016-06-17T02:35:53.648Z,0
2016-06-17T02:36:54.058Z,0
2016-06-17T02:37:54.482Z,0
2016-06-17T02:38:53.830Z,0
2016-06-17T02:39:53.818Z,0
2016-06-17T02:40:53.649Z,0
2016-06-17T02:42:07.640Z,0
2016-06-17T02:43:54.112Z,0
2016-06-17T02:44:54.069Z,0
2016-06-17T02:46:08.358Z,0
2016-06-17T02:47:07.986Z,0
2016-06-17T02:48:08.380Z,0
2016-06-17T02:49:08.008Z,0
2016-06-17T02:49:53.899Z,0
2016-06-17T02:51:08.000Z,0
2016-06-17T02:51:54.109Z,0
2016-06-17T02:52:53.268Z,0
2016-06-17T02:53:53.991Z,0
2016-06-17T02:54:53.979Z,0
2016-06-17T02:56:03.951Z,0
2016-06-17T02:56:54.438Z,0
2016-06-17T02:58:54.258Z,0
2016-06-17T02:59:54.512Z,0
2016-06-17T03:00:54.202Z,0
2016-06-17T03:01:54.160Z,0
2016-06-17T03:02:54.209Z,0
2016-06-17T03:03:54.088Z,0
2016-06-17T03:04:53.904Z,0
2016-06-17T03:05:54.392Z,0
2016-06-17T03:06:54.661Z,0
2016-06-17T03:07:53.898Z,0
2016-06-17T03:08:53.074Z,0
2016-06-17T03:10:08.191Z,0
2016-06-17T03:10:54.050Z,0
2016-06-17T03:11:54.537Z,0
2016-06-17T03:13:08.044Z,0
2016-06-17T03:13:54.326Z,0
2016-06-17T03:15:53.692Z,0
2016-06-17T03:17:54.136Z,0
2016-06-17T03:19:08.440Z,0
2016-06-17T03:20:08.037Z,0
2016-06-17T03:20:54.162Z,0
2016-06-17T03:21:53.682Z,0
2016-06-17T03:22:53.623Z,0
2016-06-17T03:23:54.486Z,0
2016-06-17T03:24:54.067Z,0
2016-06-17T03:25:54.664Z,0
2016-06-17T03:28:08.706Z,0
2016-06-17T03:28:53.721Z,0
2016-06-17T03:29:55.085Z,0
2016-06-17T03:31:54.716Z,0
2016-06-17T03:32:54.720Z,0
2016-06-17T03:33:54.270Z,0
2016-06-17T03:34:54.273Z,0
2016-06-17T03:35:54.012Z,0
2016-06-17T03:37:11.596Z,0
2016-06-17T03:37:53.830Z,0
2016-06-17T03:38:54.491Z,0
2016-06-17T03:39:54.760Z,0
2016-06-17T03:40:54.231Z,0
2016-06-17T03:41:54.594Z,0
2016-06-17T03:43:08.617Z,0
2016-06-17T03:43:54.101Z,0
2016-06-17T03:44:54.402Z,0
2016-06-17T03:45:54.640Z,0
2016-06-17T03:46:54.456Z,0
2016-06-17T03:48:54.994Z,0
2016-06-17T03:49:54.231Z,5
2016-06-17T03:50:54.125Z,5
2016-06-17T03:51:54.770Z,5
2016-06-17T03:52:54.820Z,5
2016-06-17T03:53:54.652Z,5
2016-06-17T03:54:54.436Z,5
2016-06-17T03:55:53.924Z,5
2016-06-17T03:57:08.693Z,5
2016-06-17T03:57:54.666Z,5
2016-06-17T03:59:08.560Z,5
2016-06-17T03:59:54.313Z,5
2016-06-17T04:00:54.692Z,5
2016-06-17T04:01:54.554Z,5
2016-06-17T04:02:54.511Z,5
2016-06-17T04:03:54.311Z,5
2016-06-17T04:04:54.955Z,5
2016-06-17T04:05:54.787Z,5
2016-06-17T04:06:54.760Z,5
2016-06-17T04:07:54.591Z,5
2016-06-17T04:09:09.000Z,5
2016-06-17T04:09:54.785Z,5
2016-06-17T04:10:54.960Z,5
2016-06-17T04:11:55.214Z,5
2016-06-17T04:12:54.392Z,5
2016-06-17T04:14:08.696Z,5
2016-06-17T04:15:22.585Z,5
2016-06-17T04:15:54.413Z,5
2016-06-17T04:16:54.669Z,10
2016-06-17T04:17:54.862Z,10
2016-06-17T04:18:54.866Z,10
2016-06-17T04:20:08.903Z,10
2016-06-17T04:20:54.844Z,10
2016-06-17T04:21:54.709Z,10
2016-06-17T04:22:54.698Z,5
2016-06-17T04:23:58.107Z,5
2016-06-17T04:25:08.752Z,5
2016-06-17T04:25:54.662Z,5
2016-06-17T04:27:08.868Z,5
2016-06-17T04:28:08.653Z,10
2016-06-17T04:28:55.189Z,10
2016-06-17T04:30:08.802Z,10
2016-06-17T04:30:55.181Z,10
2016-06-17T04:31:54.918Z,15
2016-06-17T04:32:55.095Z,15
2016-06-17T04:33:53.457Z,15
2016-06-17T04:34:54.242Z,20
2016-06-17T04:36:09.012Z,20
2016-06-17T04:36:54.750Z,25
2016-06-17T04:37:54.939Z,25
2016-06-17T04:38:55.178Z,20
2016-06-17T04:39:54.993Z,15
2016-06-17T04:40:54.747Z,15
2016-06-17T04:42:54.816Z,10
2016-06-17T04:43:55.242Z,5
2016-06-17T04:44:54.776Z,5
2016-06-17T04:45:54.640Z,5
2016-06-17T04:46:54.862Z,5
2016-06-17T04:47:55.288Z,5
2016-06-17T04:48:54.837Z,5
2016-06-17T04:49:54.810Z,10
2016-06-17T04:50:55.156Z,10
2016-06-17T04:51:55.035Z,10
2016-06-17T04:52:54.946Z,10
2016-06-17T04:55:08.936Z,10
2016-06-17T04:55:55.112Z,10
2016-06-17T04:56:55.335Z,10
2016-06-17T04:57:54.728Z,10
2016-06-17T04:58:54.888Z,5
2016-06-17T04:59:55.109Z,5
2016-06-17T05:00:54.738Z,5
2016-06-17T05:01:55.586Z,5
2016-06-17T05:03:23.296Z,10
2016-06-17T05:03:54.937Z,10
2016-06-17T05:04:55.580Z,10
2016-06-17T05:06:09.036Z,15
2016-06-17T05:07:55.248Z,15
2016-06-17T05:08:55.422Z,15
2016-06-17T05:10:09.051Z,15
2016-06-17T05:11:09.100Z,15
2016-06-17T05:13:09.702Z,15
2016-06-17T05:13:55.424Z,15
2016-06-17T05:14:55.022Z,15
2016-06-17T05:15:55.259Z,15
2016-06-17T05:17:55.657Z,15
2016-06-17T05:18:55.003Z,10
2016-06-17T05:19:55.476Z,15
2016-06-17T05:20:55.089Z,15
2016-06-17T05:21:55.248Z,20
2016-06-17T05:22:55.330Z,20
2016-06-17T05:23:53.973Z,20
2016-06-17T05:24:55.352Z,25
2016-06-17T05:25:55.310Z,20
2016-06-17T05:26:55.328Z,20
2016-06-17T05:27:55.301Z,15
2016-06-17T05:28:55.491Z,15
2016-06-17T05:30:09.183Z,10
2016-06-17T05:30:55.311Z,10
2016-06-17T05:31:55.315Z,15
2016-06-17T05:33:09.287Z,20
2016-06-17T05:35:08.919Z,25
2016-06-17T05:35:55.281Z,25
2016-06-17T05:36:56.004Z,20
2016-06-17T05:39:55.248Z,15
2016-06-17T05:40:55.454Z,20
2016-06-17T05:41:55.427Z,20
2016-06-17T05:42:55.633Z,15
2016-06-17T05:43:55.668Z,15
2016-06-17T05:45:09.296Z,20
2016-06-17T05:45:55.300Z,20
2016-06-17T05:47:09.694Z,20
2016-06-17T05:47:54.964Z,25
2016-06-17T05:48:55.092Z,15
2016-06-17T05:49:55.486Z,15
2016-06-17T05:50:55.067Z,10
2016-06-17T05:52:09.524Z,10
2016-06-17T05:52:55.918Z,10
2016-06-17T05:54:09.562Z,10
2016-06-17T05:54:55.503Z,10
2016-06-17T05:55:55.444Z,10
2016-06-17T05:57:09.417Z,10
2016-06-17T05:57:55.154Z,10
2016-06-17T05:58:55.173Z,10
2016-06-17T05:59:55.724Z,10
2016-06-17T06:00:55.742Z,5
2016-06-17T06:01:55.590Z,5
2016-06-17T06:03:09.625Z,10
2016-06-17T06:03:55.550Z,5
2016-06-17T06:04:55.069Z,5
2016-06-17T06:06:56.185Z,10
2016-06-17T06:07:55.673Z,10
2016-06-17T06:08:55.677Z,5
2016-06-17T06:09:55.257Z,5
2016-06-17T06:10:55.668Z,5
2016-06-17T06:11:55.436Z,5
2016-06-17T06:12:55.472Z,5
2016-06-17T06:13:55.679Z,5
2016-06-17T06:14:55.900Z,5
2016-06-17T06:15:55.325Z,5
2016-06-17T06:16:55.704Z,5
2016-06-17T06:17:55.676Z,5
2016-06-17T06:18:55.289Z,5
2016-06-17T06:19:55.497Z,5
2016-06-17T06:20:56.374Z,10
2016-06-17T06:21:55.785Z,15
2016-06-17T06:22:56.084Z,20
2016-06-17T06:23:55.713Z,30
2016-06-17T06:24:56.342Z,25
2016-06-17T06:25:55.751Z,35
2016-06-17T06:26:55.364Z,55
2016-06-17T06:27:55.477Z,65
2016-06-17T06:28:55.778Z,85
2016-06-17T06:29:55.411Z,80
2016-06-17T06:30:55.826Z,80
2016-06-17T06:31:56.006Z,80
2016-06-17T06:32:56.046Z,75
2016-06-17T06:33:55.523Z,60
2016-06-17T06:35:10.356Z,70
2016-06-17T06:35:56.314Z,70
2016-06-17T06:37:55.932Z,50
2016-06-17T06:39:09.454Z,35
2016-06-17T06:39:59.177Z,45
2016-06-17T06:40:55.291Z,40
2016-06-17T06:42:09.372Z,45
2016-06-17T06:42:55.612Z,55
2016-06-17T06:43:55.225Z,75
2016-06-17T06:44:56.665Z,95
2016-06-17T06:45:55.873Z,110
2016-06-17T06:46:55.954Z,120
2016-06-17T06:47:55.645Z,125
2016-06-17T06:48:56.367Z,130
2016-06-17T06:49:55.620Z,115
2016-06-17T06:50:56.186Z,100
2016-06-17T06:51:56.393Z,100
2016-06-17T06:52:56.022Z,115
2016-06-17T06:53:55.822Z,125
2016-06-17T06:54:56.013Z,125
2016-06-17T06:55:56.220Z,125
2016-06-17T06:56:56.410Z,110
2016-06-17T06:57:56.007Z,95
2016-06-17T06:58:55.886Z,85
2016-06-17T07:00:10.436Z,80
2016-06-17T07:00:55.846Z,75
2016-06-17T07:01:55.709Z,70
2016-06-17T07:02:56.024Z,70
2016-06-17T07:04:56.234Z,70
2016-06-17T07:05:56.160Z,70
2016-06-17T07:06:55.539Z,75
2016-06-17T07:07:55.729Z,80
2016-06-17T07:09:10.389Z,85
2016-06-17T07:10:09.986Z,90
2016-06-17T07:10:56.177Z,95
2016-06-17T07:11:56.400Z,115
2016-06-17T07:12:55.919Z,130
2016-06-17T07:13:56.157Z,145
2016-06-17T07:15:10.410Z,160
2016-06-17T07:15:56.319Z,160
2016-06-17T07:17:09.698Z,145
2016-06-17T07:18:24.095Z,130
2016-06-17T07:20:09.803Z,120
2016-06-17T07:20:56.196Z,120
2016-06-17T07:21:56.231Z,155
2016-06-17T07:22:55.032Z,185
2016-06-17T07:23:56.005Z,230
2016-06-17T07:25:10.133Z,210
2016-06-17T07:25:56.464Z,195
2016-06-17T07:26:56.451Z,175
2016-06-17T07:30:10.414Z,150
2016-06-17T07:31:10.482Z,125
2016-06-17T07:31:55.937Z,105
2016-06-17T07:32:56.316Z,105
2016-06-17T07:33:56.867Z,115
2016-06-17T07:34:56.339Z,115
2016-06-17T07:35:56.514Z,130
2016-06-17T07:36:56.314Z,145
2016-06-17T07:37:56.317Z,160
2016-06-17T07:38:56.352Z,155
2016-06-17T07:39:56.371Z,165
2016-06-17T07:40:56.531Z,175
2016-06-17T07:41:55.973Z,180
2016-06-17T07:42:56.194Z,185
2016-06-17T07:43:56.026Z,180
2016-06-17T07:44:56.170Z,165
2016-06-17T07:45:56.173Z,160
2016-06-17T07:47:10.318Z,150
2016-06-17T07:48:10.462Z,155
2016-06-17T07:48:56.028Z,160
2016-06-17T07:50:10.484Z,165
2016-06-17T07:50:55.972Z,165
2016-06-17T07:52:10.304Z,160
2016-06-17T07:52:56.620Z,155
2016-06-17T07:53:56.264Z,155
2016-06-17T07:54:56.501Z,170
2016-06-17T07:55:57.068Z,180
2016-06-17T07:56:56.289Z,190
2016-06-17T07:57:56.778Z,190
2016-06-17T07:58:56.468Z,195
2016-06-17T07:59:56.363Z,190
2016-06-17T08:04:53.052Z,230
2016-06-17T08:05:04.974Z,235
2016-06-17T08:07:04.231Z,265
2016-06-17T08:08:18.562Z,270
2016-06-17T08:09:03.723Z,255
2016-06-17T08:10:02.241Z,235
2016-06-17T08:11:03.745Z,230
2016-06-17T08:12:03.562Z,230
2016-06-17T08:13:02.298Z,230
2016-06-17T08:14:03.583Z,230
2016-06-17T08:15:03.789Z,230
2016-06-17T08:16:06.840Z,225
2016-06-17T08:17:17.343Z,225
2016-06-17T08:18:02.316Z,250
2016-06-17T08:19:03.804Z,255
2016-06-17T08:20:02.557Z,265
2016-06-17T08:21:17.795Z,280
2016-06-17T08:22:04.814Z,285
2016-06-17T08:23:03.427Z,295
2016-06-17T08:24:06.603Z,295
2016-06-17T08:25:04.715Z,290
2016-06-17T08:26:17.844Z,295
2016-06-17T08:28:18.601Z,285
2016-06-17T08:29:04.120Z,280
2016-06-17T08:30:04.561Z,280
2016-06-17T08:31:05.220Z,275
2016-06-17T08:32:03.428Z,275
2016-06-17T08:33:18.119Z,270
2016-06-17T08:34:19.388Z,260
2016-06-17T08:35:03.314Z,255
2016-06-17T08:36:04.175Z,245
2016-06-17T08:37:04.148Z,225
2016-06-17T08:38:04.011Z,215
2016-06-17T08:39:03.452Z,205
2016-06-17T08:40:04.002Z,205
2016-06-17T08:41:04.443Z,205
2016-06-17T08:42:03.821Z,195
2016-06-17T08:43:03.825Z,190
2016-06-17T08:44:04.281Z,180
2016-06-17T08:44:21.828Z,115
